Latest Coastal Weather Observations for Mallacoota

IDV60701

Issued at 12:05 pm EST Tuesday 2 September 2014 (issued every 10 minutes, with the page automatically refreshed every 10 minutes)

About coastal observations | Map of coastal stations | Coastal observations for VIC | Marine services | Other Formats
Station Details ID: 084084 Name: MALLACOOTA Lat: -37.60 Lon: 149.73 Height: 22.0 m
Data from the previous 72 hours. | See also: Recent months at Mallacoota
Date/Time
EST
Temp

°C
Wind Pressure Rain
since 9am
mm
Weather Cloud Vis
km
Sea
Height
m
Swell
Dir
 
Speed
knots
Gust
knots
hPa Trend Height
m
Period
s
Dir
02/12:00pm 9.8 W 11 19 1010.8 - 1.4 - - - - - - -
02/11:30am 10.8 WSW 10 18 1010.5 - 1.0 - - - - - - -
02/11:00am 10.7 SW 12 21 1010.8 - 0.8 - - - - - - -
02/10:30am 10.2 SW 11 18 1010.6 - 0.6 - - - - - - -
02/10:00am 10.5 WSW 11 19 1010.5 - 0.4 - - - - - - -
02/09:30am 10.5 SW 10 17 1010.4 - 0.4 - - - - - - -
02/09:00am 10.3 WSW 9 15 1010.1 - 6.6 - - - - - - -
02/08:30am 10.4 SW 10 21 1009.9 - 5.8 - - - - - - -
02/08:00am 10.6 W 10 15 1009.5 - 5.4 - - - - - - -
02/07:30am 10.3 W 11 17 1009.3 - 5.4 - - - - - - -
02/07:00am 10.0 W 11 18 1009.0 - 5.4 - - - - - - -
02/06:30am 10.0 W 9 19 1009.0 - 5.4 - - - - - - -
02/06:00am 10.0 W 9 15 1008.8 - 5.0 - - - - - - -
02/05:30am 10.0 W 8 14 1008.9 - 4.6 - - - - - - -
02/05:00am 10.1 W 8 14 1008.8 - 4.2 - - - - - - -
02/04:30am 10.0 W 6 10 1008.8 - 3.6 - - - - - - -
02/04:00am 10.1 W 6 9 1008.6 - 3.2 - - - - - - -
02/03:30am 10.1 WNW 7 12 1008.7 - 2.8 - - - - - - -
02/03:00am 10.1 W 7 14 1008.5 - 2.6 - - - - - - -
02/02:30am 10.3 W 5 9 1008.9 - 2.6 - - - - - - -
02/02:00am 10.5 W 4 9 1009.0 - 2.4 - - - - - - -
02/01:30am 10.8 WSW 7 13 1009.2 - 1.8 - - - - - - -
02/01:00am 11.4 W 3 6 1009.6 - 1.2 - - - - - - -
02/12:30am 11.7 NW 3 4 1009.6 - 0.2 - - - - - - -
02/12:00am 11.7 W 3 5 1009.0 - 0.2 - - - - - - -
 
Date/Time
EST
Temp

°C
Wind Pressure Rain
since 9am
mm
Weather Cloud Vis
km
Sea
Height
m
Swell
Dir
 
Speed
knots
Gust
knots
hPa Trend Height
m
Period
s
Dir
01/11:30pm 11.8 WSW 3 6 1009.2 - 0.0 - - - - - - -
01/11:00pm 11.8 W 5 7 1009.3 - 0.0 - - - - - - -
01/10:30pm 11.9 WSW 3 5 1009.4 - 0.0 - - - - - - -
01/10:00pm 12.2 W 5 8 1009.4 - 0.0 - - - - - - -
01/09:30pm 12.9 SW 8 13 1009.3 - 0.0 - - - - - - -
01/09:00pm 13.8 SW 9 18 1009.5 - 0.0 - - - - - - -
01/08:30pm 14.1 SW 12 21 1009.4 - 0.0 - - - - - - -
01/08:00pm 14.8 SW 14 23 1008.8 - 0.0 - - - - - - -
01/07:45pm 15.5 SW 15 23 1008.2 - 0.0 - - - - - - -
01/07:30pm 15.9 W 6 10 1007.7 - 0.0 - - - - - - -
01/07:00pm 16.5 NNW 7 10 1006.8 - 0.0 - - - - - - -
01/06:30pm 16.6 NNW 8 11 1006.9 - 0.0 - - - - - - -
01/06:00pm 16.2 N 6 9 1006.6 - 0.0 - - - - - - -
01/05:30pm 16.5 NNW 6 7 1006.5 - 0.0 - - - - - - -
01/05:00pm 15.6 NNW 4 5 1006.5 - 0.0 - - - - - - -
01/04:30pm 16.8 NNW 5 6 1006.7 - 0.0 - - - - - - -
01/04:00pm 17.4 N 5 7 1006.8 - 0.0 - - - - - - -
01/03:30pm 18.7 NNW 5 7 1007.0 - 0.0 - - - - - - -
01/03:00pm 19.6 NNW 5 7 1007.1 - 0.0 - - - - - - -
01/02:30pm 20.3 NNW 4 5 1007.2 - 0.0 - - - - - - -
01/02:00pm 20.9 N 5 8 1007.5 - 0.0 - - - - - - -
01/01:30pm 20.6 N 6 8 1008.1 - 0.0 - - - - - - -
01/01:00pm 20.4 N 7 9 1008.5 - 0.0 - - - - - - -
01/12:30pm 20.5 NNE 7 9 1008.7 - 0.0 - - - - - - -
01/12:00pm 19.5 NNE 5 7 1009.3 - 0.0 - - - - - - -
01/11:30am 18.3 N 6 9 1009.9 - 0.0 - - - - - - -
01/11:00am 17.0 N 6 10 1010.2 - 0.0 - - - - - - -
01/10:30am 17.8 N 7 10 1010.4 - 0.0 - - - - - - -
01/10:00am 16.4 N 9 12 1010.8 - 0.0 - - - - - - -
01/09:30am 14.0 N 6 8 1011.3 - 0.0 - - - - - - -
01/09:00am 13.5 N 6 10 1011.6 - 0.2 - - - - - - -
01/08:30am 13.3 N 6 8 1011.8 - 0.2 - - - - - - -
01/08:00am 12.3 NNW 6 9 1012.2 - 0.0 - - - - - - -
01/07:30am 11.8 NNW 8 11 1012.1 - 0.0 - - - - - - -
01/07:00am 11.2 NNW 7 11 1012.0 - 0.0 - - - - - - -
01/06:30am 10.9 NNW 7 9 1012.0 - 0.0 - - - - - - -
01/06:00am 10.7 NW 7 11 1012.1 - 0.0 - - - - - - -
01/05:30am 11.1 NNW 6 10 1012.0 - 0.0 - - - - - - -
01/05:00am 11.4 NNW 7 10 1011.9 - 0.0 - - - - - - -
01/04:30am 10.8 NNW 6 8 1011.9 - 0.0 - - - - - - -
01/04:00am 10.7 NNW 6 8 1012.1 - 0.0 - - - - - - -
01/03:30am 11.2 NNW 5 8 1012.2 - 0.0 - - - - - - -
01/03:00am 11.3 NNW 5 8 1012.6 - 0.0 - - - - - - -
01/02:30am 10.8 N 5 7 1012.9 - 0.0 - - - - - - -
01/02:00am 10.8 NNW 5 7 1013.4 - 0.0 - - - - - - -
01/01:30am 11.1 NW 6 8 1013.7 - 0.0 - - - - - - -
01/01:00am 11.4 NNW 6 9 1014.0 - 0.0 - - - - - - -
01/12:30am 11.4 NNW 6 9 1014.3 - 0.0 - - - - - - -
01/12:00am 11.4 NNW 4 6 1014.6 - 0.0 - - - - - - -
 
Date/Time
EST
Temp

°C
Wind Pressure Rain
since 9am
mm
Weather Cloud Vis
km
Sea
Height
m
Swell
Dir
 
Speed
knots
Gust
knots
hPa Trend Height
m
Period
s
Dir
31/11:30pm 12.0 N 5 7 1014.7 - 0.0 - - - - - - -
31/11:00pm 12.3 N 7 11 1015.1 - 0.0 - - - - - - -
31/10:30pm 12.5 N 7 10 1015.3 - 0.0 - - - - - - -
31/10:00pm 12.5 N 7 10 1015.7 - 0.0 - - - - - - -
31/09:30pm 12.7 N 8 13 1016.0 - 0.0 - - - - - - -
31/09:00pm 12.3 NNW 6 9 1016.3 - 0.0 - - - - - - -
31/08:30pm 12.6 NNW 6 7 1016.3 - 0.0 - - - - - - -
31/08:00pm 12.6 NNW 5 7 1016.2 - 0.0 - - - - - - -
31/07:30pm 12.8 N 6 8 1016.3 - 0.0 - - - - - - -
31/07:00pm 12.9 NNW 5 6 1016.3 - 0.0 - - - - - - -
31/06:30pm 12.3 NNW 4 6 1016.3 - 0.0 - - - - - - -
31/06:00pm 12.9 CALM 0 3 1016.1 - 0.0 - - - - - - -
31/05:30pm 14.7 NNE 5 7 1015.9 - 0.0 - - - - - - -
31/05:00pm 15.6 ENE 6 9 1015.7 - 0.0 - - - - - - -
31/04:30pm 16.1 ENE 5 8 1015.8 - 0.0 - - - - - - -
31/04:00pm 16.5 ENE 6 9 1015.8 - 0.0 - - - - - - -
31/03:30pm 16.5 E 8 11 1015.9 - 0.0 - - - - - - -
31/03:00pm 16.7 E 9 12 1016.1 - 0.0 - - - - - - -
31/02:30pm 17.1 E 8 10 1016.4 - 0.0 - - - - - - -
31/02:00pm 17.1 E 7 9 1016.7 - 0.0 - - - - - - -
31/01:30pm 17.2 ENE 7 9 1016.9 - 0.0 - - - - - - -
31/01:00pm 17.3 E 7 9 1017.2 - 0.0 - - - - - - -
31/12:30pm 17.0 E 6 8 1017.8 - 0.0 - - - - - - -
31/12:00pm 15.7 E 6 7 1018.3 - 0.0 - - - - - - -
31/11:30am 16.0 E 5 7 1018.8 - 0.0 - - - - - - -
31/11:00am 16.7 ENE 5 8 1019.1 - 0.0 - - - - - - -
31/10:30am 16.9 N 7 12 1019.4 - 0.0 - - - - - - -
31/10:00am 15.9 N 8 10 1019.7 - 0.0 - - - - - - -
31/09:30am 14.6 N 7 9 1020.0 - 0.0 - - - - - - -
31/09:00am 13.3 NNW 6 7 1020.1 - 0.4 - - - - - - -
31/08:30am 11.6 NW 7 9 1020.3 - 0.4 - - - - - - -
31/08:00am 9.6 NW 9 11 1020.3 - 0.4 - - - - - - -
31/07:30am 8.6 NW 9 11 1020.3 - 0.4 - - - - - - -
31/07:00am 7.6 NW 8 11 1020.3 - 0.4 - - - - - - -
31/06:30am 7.5 NW 8 9 1020.2 - 0.4 - - - - - - -
31/06:00am 7.6 NW 8 9 1020.1 - 0.2 - - - - - - -
31/05:30am 7.7 NW 8 10 1020.1 - 0.2 - - - - - - -
31/05:00am 7.7 NW 8 10 1020.1 - 0.2 - - - - - - -
31/04:30am 7.9 NW 9 11 1020.1 - 0.2 - - - - - - -
31/04:00am 8.1 NW 8 10 1020.1 - 0.2 - - - - - - -
31/03:30am 8.3 NW 8 11 1020.6 - 0.2 - - - - - - -
31/03:00am 8.4 NW 8 11 1020.9 - 0.2 - - - - - - -
31/02:30am 8.4 NW 8 10 1021.1 - 0.2 - - - - - - -
31/02:00am 8.7 NW 8 9 1021.4 - 0.2 - - - - - - -
31/01:30am 8.9 WNW 7 9 1021.7 - 0.2 - - - - - - -
31/01:00am 8.7 NW 7 9 1021.9 - 0.2 - - - - - - -
31/12:30am 8.8 NW 7 9 1022.1 - 0.2 - - - - - - -
31/12:00am 9.0 NW 6 8 1022.4 - 0.2 - - - - - - -
 
Date/Time
EST
Temp

°C
Wind Pressure Rain
since 9am
mm
Weather Cloud Vis
km
Sea
Height
m
Swell
Dir
 
Speed
knots
Gust
knots
hPa Trend Height
m
Period
s
Dir
30/11:30pm 9.2 WNW 7 8 1022.6 - 0.2 - - - - - - -
30/11:00pm 9.6 WNW 6 8 1022.7 - 0.2 - - - - - - -
30/10:30pm 9.8 WNW 5 5 1023.0 - 0.2 - - - - - - -
30/10:00pm 10.7 NW 3 6 1023.2 - 0.2 - - - - - - -
30/09:30pm 11.6 ENE 2 4 1023.4 - 0.2 - - - - - - -
30/09:00pm 13.5 ESE 4 5 1023.8 - 0.2 - - - - - - -
30/08:30pm 13.7 SE 7 9 1023.8 - 0.2 - - - - - - -
30/08:00pm 13.8 SE 10 13 1024.1 - 0.2 - - - - - - -
30/07:30pm 13.4 SE 9 12 1024.2 - 0.0 - - - - - - -
30/07:00pm 14.1 ESE 7 10 1024.1 - 0.0 - - - - - - -
30/06:30pm 14.0 ESE 6 9 1024.2 - 0.0 - - - - - - -
30/06:00pm 14.2 SE 5 8 1024.4 - 0.0 - - - - - - -
30/05:30pm 14.2 ESE 5 11 1024.3 - 0.0 - - - - - - -
30/05:00pm 14.6 ESE 6 9 1024.2 - 0.0 - - - - - - -
30/04:30pm 15.0 SSE 4 7 1024.2 - 0.0 - - - - - - -
30/04:00pm 15.3 S 5 6 1024.2 - 0.0 - - - - - - -
30/03:30pm 14.6 S 6 10 1024.3 - 0.0 - - - - - - -
30/03:00pm 15.6 S 6 9 1024.4 - 0.0 - - - - - - -
30/02:30pm 15.7 S 8 10 1024.5 - 0.0 - - - - - - -
30/02:00pm 16.0 S 6 9 1024.8 - 0.0 - - - - - - -
30/01:30pm 16.2 S 7 11 1025.1 - 0.0 - - - - - - -
30/01:00pm 16.2 S 7 12 1025.4 - 0.0 - - - - - - -
30/12:30pm 16.0 S 5 7 1025.9 - 0.0 - - - - - - -

Other Formats:

Comma delimited format used in spreadsheet applications
http://www.bom.gov.au/fwo/IDV60701/IDV60701.94935.axf

JavaScript Object Notation format (JSON) in row-major order
http://www.bom.gov.au/fwo/IDV60701/IDV60701.94935.json